sensor_id;sensor_type;location;lat;lon;timestamp;pressure;altitude;pressure_sealevel;temperature;humidity
21588;BME280;10956;48.878;13.316;2023-08-12T00:00:55;94808.31;;;14.62;100.00
21588;BME280;10956;48.878;13.316;2023-08-12T00:03:21;94807.84;;;14.54;100.00
21588;BME280;10956;48.878;13.316;2023-08-12T00:05:47;94806.00;;;14.50;100.00
21588;BME280;10956;48.878;13.316;2023-08-12T00:08:12;94808.41;;;14.41;100.00
21588;BME280;10956;48.878;13.316;2023-08-12T00:10:37;94800.72;;;14.40;100.00
21588;BME280;10956;48.878;13.316;2023-08-12T00:13:03;94806.03;;;14.40;100.00
21588;BME280;10956;48.878;13.316;2023-08-12T00:15:29;94798.34;;;14.38;100.00
21588;BME280;10956;48.878;13.316;2023-08-12T00:17:54;94799.94;;;14.39;100.00
21588;BME280;10956;48.878;13.316;2023-08-12T00:20:19;94793.28;;;14.47;100.00
21588;BME280;10956;48.878;13.316;2023-08-12T00:22:46;94784.31;;;14.43;100.00
21588;BME280;10956;48.878;13.316;2023-08-12T00:25:11;94777.16;;;14.38;100.00
21588;BME280;10956;48.878;13.316;2023-08-12T00:27:37;94783.50;;;14.42;100.00
21588;BME280;10956;48.878;13.316;2023-08-12T00:30:03;94780.31;;;14.40;100.00
21588;BME280;10956;48.878;13.316;2023-08-12T00:32:29;94786.69;;;14.44;100.00
21588;BME280;10956;48.878;13.316;2023-08-12T00:34:55;94783.75;;;14.46;100.00
21588;BME280;10956;48.878;13.316;2023-08-12T00:37:20;94786.13;;;14.47;100.00
21588;BME280;10956;48.878;13.316;2023-08-12T00:39:46;94784.53;;;14.46;100.00
21588;BME280;10956;48.878;13.316;2023-08-12T00:42:11;94780.31;;;14.40;100.00
21588;BME280;10956;48.878;13.316;2023-08-12T00:44:37;94777.16;;;14.43;100.00
21588;BME280;10956;48.878;13.316;2023-08-12T00:47:02;94779.25;;;14.46;100.00
21588;BME280;10956;48.878;13.316;2023-08-12T00:49:28;94776.06;;;14.44;100.00
21588;BME280;10956;48.878;13.316;2023-08-12T00:51:54;94777.41;;;14.42;100.00
21588;BME280;10956;48.878;13.316;2023-08-12T00:54:21;94771.84;;;14.38;100.00
21588;BME280;10956;48.878;13.316;2023-08-12T00:56:49;94769.72;;;14.40;100.00
21588;BME280;10956;48.878;13.316;2023-08-12T00:59:14;94766.53;;;14.38;100.00
21588;BME280;10956;48.878;13.316;2023-08-12T01:01:43;94772.13;;;14.37;100.00
21588;BME280;10956;48.878;13.316;2023-08-12T01:04:09;94778.72;;;14.39;100.00
21588;BME280;10956;48.878;13.316;2023-08-12T01:06:35;94772.63;;;14.39;100.00
21588;BME280;10956;48.878;13.316;2023-08-12T01:09:01;94777.16;;;14.38;100.00
21588;BME280;10956;48.878;13.316;2023-08-12T01:11:36;94772.91;;;14.42;100.00
21588;BME280;10956;48.878;13.316;2023-08-12T01:14:11;94775.56;;;14.37;100.00
21588;BME280;10956;48.878;13.316;2023-08-12T01:16:42;94767.09;;;14.35;100.00
21588;BME280;10956;48.878;13.316;2023-08-12T01:19:23;94762.56;;;14.36;100.00
21588;BME280;10956;48.878;13.316;2023-08-12T01:21:53;94762.09;;;14.29;100.00
21588;BME280;10956;48.878;13.316;2023-08-12T01:24:21;94764.47;;;14.30;100.00
21588;BME280;10956;48.878;13.316;2023-08-12T01:26:47;94758.69;;;14.23;100.00
21588;BME280;10956;48.878;13.316;2023-08-12T01:29:12;94761.38;;;14.18;100.00
21588;BME280;10956;48.878;13.316;2023-08-12T01:31:48;94756.06;;;14.18;100.00
21588;BME280;10956;48.878;13.316;2023-08-12T01:34:44;94743.38;;;14.10;100.00
21588;BME280;10956;48.878;13.316;2023-08-12T01:37:16;94737.28;;;14.09;100.00
21588;BME280;10956;48.878;13.316;2023-08-12T01:39:43;94738.31;;;14.13;100.00
21588;BME280;10956;48.878;13.316;2023-08-12T01:42:10;94739.66;;;14.11;100.00
21588;BME280;10956;48.878;13.316;2023-08-12T01:44:36;94733.84;;;14.09;100.00
21588;BME280;10956;48.878;13.316;2023-08-12T01:47:02;94732.28;;;14.03;100.00
21588;BME280;10956;48.878;13.316;2023-08-12T01:49:28;94730.72;;;14.02;100.00
21588;BME280;10956;48.878;13.316;2023-08-12T01:51:53;94727.53;;;14.00;100.00
21588;BME280;10956;48.878;13.316;2023-08-12T01:54:19;94732.28;;;14.03;100.00
21588;BME280;10956;48.878;13.316;2023-08-12T01:56:45;94730.16;;;14.05;100.00
21588;BME280;10956;48.878;13.316;2023-08-12T01:59:10;94735.16;;;14.11;100.00
21588;BME280;10956;48.878;13.316;2023-08-12T02:01:36;94734.34;;;14.16;100.00
21588;BME280;10956;48.878;13.316;2023-08-12T02:04:01;94730.91;;;14.15;100.00
21588;BME280;10956;48.878;13.316;2023-08-12T02:06:26;94731.16;;;14.14;100.00
21588;BME280;10956;48.878;13.316;2023-08-12T02:08:52;94730.66;;;14.12;100.00
21588;BME280;10956;48.878;13.316;2023-08-12T02:11:17;94726.13;;;14.17;100.00
21588;BME280;10956;48.878;13.316;2023-08-12T02:13:43;94725.84;;;14.19;100.00
21588;BME280;10956;48.878;13.316;2023-08-12T02:16:08;94722.69;;;14.12;100.00
21588;BME280;10956;48.878;13.316;2023-08-12T02:18:33;94716.38;;;14.08;100.00
21588;BME280;10956;48.878;13.316;2023-08-12T02:20:59;94720.09;;;14.07;100.00
21588;BME280;10956;48.878;13.316;2023-08-12T02:23:24;94718.50;;;14.06;100.00
21588;BME280;10956;48.878;13.316;2023-08-12T02:25:52;94720.34;;;14.05;100.00
21588;BME280;10956;48.878;13.316;2023-08-12T02:28:17;94722.47;;;14.03;100.00
21588;BME280;10956;48.878;13.316;2023-08-12T02:30:42;94719.56;;;14.05;100.00
21588;BME280;10956;48.878;13.316;2023-08-12T02:33:08;94712.13;;;14.07;100.00
21588;BME280;10956;48.878;13.316;2023-08-12T02:35:33;94715.84;;;14.06;100.00
21588;BME280;10956;48.878;13.316;2023-08-12T02:37:59;94709.44;;;14.12;100.00
21588;BME280;10956;48.878;13.316;2023-08-12T02:40:24;94716.88;;;14.10;100.00
21588;BME280;10956;48.878;13.316;2023-08-12T02:42:50;94709.50;;;14.02;100.00
21588;BME280;10956;48.878;13.316;2023-08-12T02:45:15;94709.50;;;14.02;100.00
21588;BME280;10956;48.878;13.316;2023-08-12T02:47:41;94707.34;;;14.09;100.00
21588;BME280;10956;48.878;13.316;2023-08-12T02:50:07;94701.47;;;14.17;100.00
21588;BME280;10956;48.878;13.316;2023-08-12T02:52:32;94696.16;;;14.17;100.00
21588;BME280;10956;48.878;13.316;2023-08-12T02:54:58;94698.81;;;14.17;100.00
21588;BME280;10956;48.878;13.316;2023-08-12T02:57:23;94696.69;;;14.19;100.00
21588;BME280;10956;48.878;13.316;2023-08-12T02:59:49;94693.44;;;14.27;100.00
21588;BME280;10956;48.878;13.316;2023-08-12T03:02:14;94688.19;;;14.22;100.00
21588;BME280;10956;48.878;13.316;2023-08-12T03:04:41;94689.28;;;14.16;100.00
21588;BME280;10956;48.878;13.316;2023-08-12T03:07:07;94688.25;;;14.12;100.00
21588;BME280;10956;48.878;13.316;2023-08-12T03:09:32;94686.41;;;14.07;100.00
21588;BME280;10956;48.878;13.316;2023-08-12T03:11:58;94688.84;;;13.99;100.00
21588;BME280;10956;48.878;13.316;2023-08-12T03:14:28;94688.63;;;13.95;100.00
21588;BME280;10956;48.878;13.316;2023-08-12T03:16:54;94695.75;;;14.00;100.00
21588;BME280;10956;48.878;13.316;2023-08-12T03:19:20;94687.28;;;13.98;100.00
21588;BME280;10956;48.878;13.316;2023-08-12T03:21:45;94695.25;;;13.93;100.00
21588;BME280;10956;48.878;13.316;2023-08-12T03:24:10;94692.09;;;13.90;100.00
21588;BME280;10956;48.878;13.316;2023-08-12T03:26:36;94688.91;;;13.94;100.00
21588;BME280;10956;48.878;13.316;2023-08-12T03:29:02;94687.81;;;13.95;100.00
21588;BME280;10956;48.878;13.316;2023-08-12T03:31:27;94685.16;;;14.00;100.00
21588;BME280;10956;48.878;13.316;2023-08-12T03:33:53;94694.16;;;13.99;100.00
21588;BME280;10956;48.878;13.316;2023-08-12T03:36:18;94686.22;;;13.99;100.00
21588;BME280;10956;48.878;13.316;2023-08-12T03:38:43;94675.88;;;13.97;100.00
21588;BME280;10956;48.878;13.316;2023-08-12T03:41:09;94683.59;;;13.94;100.00
21588;BME280;10956;48.878;13.316;2023-08-12T03:43:34;94670.34;;;13.94;100.00
21588;BME280;10956;48.878;13.316;2023-08-12T03:46:00;94674.06;;;13.93;100.00
21588;BME280;10956;48.878;13.316;2023-08-12T03:48:25;94679.31;;;13.98;100.00
21588;BME280;10956;48.878;13.316;2023-08-12T03:50:51;94680.63;;;14.00;100.00
21588;BME280;10956;48.878;13.316;2023-08-12T03:53:16;94677.78;;;13.92;100.00
21588;BME280;10956;48.878;13.316;2023-08-12T03:55:42;94674.34;;;13.91;100.00
21588;BME280;10956;48.878;13.316;2023-08-12T03:58:08;94673.28;;;13.92;100.00
21588;BME280;10956;48.878;13.316;2023-08-12T04:00:33;94679.31;;;13.98;100.00
21588;BME280;10956;48.878;13.316;2023-08-12T04:02:59;94677.16;;;14.05;100.00
21588;BME280;10956;48.878;13.316;2023-08-12T04:05:24;94678.19;;;14.09;100.00
21588;BME280;10956;48.878;13.316;2023-08-12T04:07:50;94681.38;;;14.11;100.00
21588;BME280;10956;48.878;13.316;2023-08-12T04:10:15;94677.38;;;14.13;100.00
21588;BME280;10956;48.878;13.316;2023-08-12T04:12:41;94668.06;;;14.16;100.00
21588;BME280;10956;48.878;13.316;2023-08-12T04:15:09;94672.81;;;14.19;100.00
21588;BME280;10956;48.878;13.316;2023-08-12T04:17:35;94672.28;;;14.22;100.00
21588;BME280;10956;48.878;13.316;2023-08-12T04:20:01;94669.59;;;14.27;100.00
21588;BME280;10956;48.878;13.316;2023-08-12T04:22:30;94669.53;;;14.32;100.00
21588;BME280;10956;48.878;13.316;2023-08-12T04:24:55;94667.13;;;14.36;100.00
21588;BME280;10956;48.878;13.316;2023-08-12T04:27:21;94675.38;;;14.34;100.00
21588;BME280;10956;48.878;13.316;2023-08-12T04:29:46;94660.47;;;14.38;100.00
21588;BME280;10956;48.878;13.316;2023-08-12T04:32:12;94671.59;;;14.45;100.00
21588;BME280;10956;48.878;13.316;2023-08-12T04:34:37;94664.16;;;14.47;100.00
21588;BME280;10956;48.878;13.316;2023-08-12T04:37:03;94662.00;;;14.49;100.00
21588;BME280;10956;48.878;13.316;2023-08-12T04:39:28;94661.47;;;14.52;100.00
21588;BME280;10956;48.878;13.316;2023-08-12T04:41:54;94671.19;;;14.62;100.00
21588;BME280;10956;48.878;13.316;2023-08-12T04:44:19;94665.09;;;14.62;100.00
21588;BME280;10956;48.878;13.316;2023-08-12T04:46:44;94668.25;;;14.64;100.00
21588;BME280;10956;48.878;13.316;2023-08-12T04:49:10;94657.66;;;14.64;100.00
21588;BME280;10956;48.878;13.316;2023-08-12T04:51:35;94670.34;;;14.67;100.00
21588;BME280;10956;48.878;13.316;2023-08-12T04:54:01;94653.13;;;14.64;100.00
21588;BME280;10956;48.878;13.316;2023-08-12T04:56:27;94659.22;;;14.65;100.00
21588;BME280;10956;48.878;13.316;2023-08-12T04:58:54;94660.19;;;14.74;100.00
21588;BME280;10956;48.878;13.316;2023-08-12T05:01:20;94653.72;;;14.85;100.00
21588;BME280;10956;48.878;13.316;2023-08-12T05:03:45;94661.63;;;14.90;100.00
21588;BME280;10956;48.878;13.316;2023-08-12T05:06:10;94655.78;;;14.93;100.00
21588;BME280;10956;48.878;13.316;2023-08-12T05:08:36;94661.06;;;14.93;100.00
21588;BME280;10956;48.878;13.316;2023-08-12T05:11:02;94657.28;;;14.99;100.00
21588;BME280;10956;48.878;13.316;2023-08-12T05:13:28;94656.13;;;15.10;100.00
21588;BME280;10956;48.878;13.316;2023-08-12T05:15:54;94656.84;;;15.16;100.00
21588;BME280;10956;48.878;13.316;2023-08-12T05:18:21;94656.56;;;15.17;100.00
21588;BME280;10956;48.878;13.316;2023-08-12T05:20:49;94648.53;;;15.23;100.00
21588;BME280;10956;48.878;13.316;2023-08-12T05:23:16;94654.31;;;15.30;100.00
21588;BME280;10956;48.878;13.316;2023-08-12T05:25:41;94657.47;;;15.32;100.00
21588;BME280;10956;48.878;13.316;2023-08-12T05:28:07;94649.44;;;15.37;100.00
21588;BME280;10956;48.878;13.316;2023-08-12T05:30:33;94653.63;;;15.43;100.00
21588;BME280;10956;48.878;13.316;2023-08-12T05:32:58;94649.81;;;15.49;100.00
21588;BME280;10956;48.878;13.316;2023-08-12T05:35:24;94651.88;;;15.57;100.00
21588;BME280;10956;48.878;13.316;2023-08-12T05:37:50;94650.22;;;15.61;100.00
21588;BME280;10956;48.878;13.316;2023-08-12T05:40:15;94650.72;;;15.63;100.00
21588;BME280;10956;48.878;13.316;2023-08-12T05:42:41;94656.78;;;15.69;100.00
21588;BME280;10956;48.878;13.316;2023-08-12T05:45:07;94660.50;;;15.68;100.00
21588;BME280;10956;48.878;13.316;2023-08-12T05:47:32;94660.78;;;15.66;100.00
21588;BME280;10956;48.878;13.316;2023-08-12T05:49:58;94665.03;;;15.67;100.00
21588;BME280;10956;48.878;13.316;2023-08-12T05:52:23;94668.63;;;15.76;100.00
21588;BME280;10956;48.878;13.316;2023-08-12T05:54:49;94661.94;;;15.79;100.00
21588;BME280;10956;48.878;13.316;2023-08-12T05:57:14;94658.78;;;15.77;100.00
21588;BME280;10956;48.878;13.316;2023-08-12T05:59:39;94659.00;;;15.80;100.00
21588;BME280;10956;48.878;13.316;2023-08-12T06:02:05;94662.81;;;15.93;100.00
21588;BME280;10956;48.878;13.316;2023-08-12T06:04:31;94660.31;;;16.02;100.00
21588;BME280;10956;48.878;13.316;2023-08-12T06:06:57;94659.16;;;16.08;100.00
21588;BME280;10956;48.878;13.316;2023-08-12T06:09:22;94660.88;;;16.18;100.00
21588;BME280;10956;48.878;13.316;2023-08-12T06:11:47;94659.44;;;16.25;100.00
21588;BME280;10956;48.878;13.316;2023-08-12T06:14:13;94652.75;;;16.28;100.00
21588;BME280;10956;48.878;13.316;2023-08-12T06:16:38;94660.63;;;16.33;100.00
21588;BME280;10956;48.878;13.316;2023-08-12T06:19:04;94659.69;;;16.42;100.00
21588;BME280;10956;48.878;13.316;2023-08-12T06:21:30;94664.63;;;16.49;100.00
21588;BME280;10956;48.878;13.316;2023-08-12T06:23:56;94662.69;;;16.55;100.00
21588;BME280;10956;48.878;13.316;2023-08-12T06:26:21;94664.69;;;16.63;100.00
21588;BME280;10956;48.878;13.316;2023-08-12T06:28:47;94661.97;;;16.68;100.00
21588;BME280;10956;48.878;13.316;2023-08-12T06:31:12;94658.50;;;16.67;100.00
21588;BME280;10956;48.878;13.316;2023-08-12T06:33:37;94661.00;;;16.77;100.00
21588;BME280;10956;48.878;13.316;2023-08-12T06:36:03;94658.66;;;16.90;100.00
21588;BME280;10956;48.878;13.316;2023-08-12T06:38:28;94663.59;;;16.96;100.00
21588;BME280;10956;48.878;13.316;2023-08-12T06:40:54;94656.50;;;17.05;100.00
21588;BME280;10956;48.878;13.316;2023-08-12T06:43:20;94650.19;;;17.15;100.00
21588;BME280;10956;48.878;13.316;2023-08-12T06:45:45;94655.44;;;17.34;100.00
21588;BME280;10956;48.878;13.316;2023-08-12T06:48:11;94656.31;;;17.43;100.00
21588;BME280;10956;48.878;13.316;2023-08-12T06:50:36;94655.13;;;17.49;100.00
21588;BME280;10956;48.878;13.316;2023-08-12T06:53:01;94645.66;;;17.57;100.00
21588;BME280;10956;48.878;13.316;2023-08-12T06:55:27;94652.16;;;17.64;100.00
21588;BME280;10956;48.878;13.316;2023-08-12T06:57:52;94645.06;;;17.73;100.00
21588;BME280;10956;48.878;13.316;2023-08-12T07:00:18;94645.63;;;17.84;100.00
21588;BME280;10956;48.878;13.316;2023-08-12T07:02:43;94636.13;;;17.92;100.00
21588;BME280;10956;48.878;13.316;2023-08-12T07:05:09;94645.09;;;17.96;100.00
21588;BME280;10956;48.878;13.316;2023-08-12T07:07:34;94642.31;;;18.01;100.00
21588;BME280;10956;48.878;13.316;2023-08-12T07:10:00;94641.00;;;18.12;100.00
21588;BME280;10956;48.878;13.316;2023-08-12T07:12:26;94640.16;;;18.25;100.00
21588;BME280;10956;48.878;13.316;2023-08-12T07:14:52;94643.38;;;18.36;100.00
21588;BME280;10956;48.878;13.316;2023-08-12T07:17:17;94638.09;;;18.45;100.00
21588;BME280;10956;48.878;13.316;2023-08-12T07:19:42;94638.66;;;18.55;100.00
21588;BME280;10956;48.878;13.316;2023-08-12T07:22:08;94643.94;;;18.69;100.00
21588;BME280;10956;48.878;13.316;2023-08-12T07:24:33;94627.38;;;18.81;100.00
21588;BME280;10956;48.878;13.316;2023-08-12T07:26:59;94624.56;;;18.86;100.00
21588;BME280;10956;48.878;13.316;2023-08-12T07:29:24;94633.53;;;18.90;100.00
21588;BME280;10956;48.878;13.316;2023-08-12T07:31:51;94633.44;;;19.03;100.00
21588;BME280;10956;48.878;13.316;2023-08-12T07:34:17;94633.16;;;19.14;100.00
21588;BME280;10956;48.878;13.316;2023-08-12T07:36:42;94628.16;;;19.21;100.00
21588;BME280;10956;48.878;13.316;2023-08-12T07:39:08;94626.63;;;19.28;100.00
21588;BME280;10956;48.878;13.316;2023-08-12T07:41:33;94619.13;;;19.39;100.00
21588;BME280;10956;48.878;13.316;2023-08-12T07:43:59;94619.91;;;19.48;100.00
21588;BME280;10956;48.878;13.316;2023-08-12T07:46:24;94619.19;;;19.56;100.00
21588;BME280;10956;48.878;13.316;2023-08-12T07:48:50;94615.91;;;19.68;100.00
21588;BME280;10956;48.878;13.316;2023-08-12T07:51:15;94611.31;;;19.60;100.00
21588;BME280;10956;48.878;13.316;2023-08-12T07:53:41;94606.94;;;19.73;100.00
21588;BME280;10956;48.878;13.316;2023-08-12T07:56:06;94610.09;;;19.92;100.00
21588;BME280;10956;48.878;13.316;2023-08-12T07:58:32;94612.63;;;20.14;100.00
21588;BME280;10956;48.878;13.316;2023-08-12T08:00:57;94611.38;;;20.20;100.00
21588;BME280;10956;48.878;13.316;2023-08-12T08:03:22;94604.91;;;20.30;100.00
21588;BME280;10956;48.878;13.316;2023-08-12T08:05:48;94603.81;;;20.40;100.00
21588;BME280;10956;48.878;13.316;2023-08-12T08:08:14;94609.34;;;20.43;100.00
21588;BME280;10956;48.878;13.316;2023-08-12T08:10:39;94613.25;;;20.46;100.00
21588;BME280;10956;48.878;13.316;2023-08-12T08:13:05;94609.94;;;20.57;100.00
21588;BME280;10956;48.878;13.316;2023-08-12T08:15:30;94616.38;;;20.65;100.00
21588;BME280;10956;48.878;13.316;2023-08-12T08:17:56;94606.75;;;20.73;100.00
21588;BME280;10956;48.878;13.316;2023-08-12T08:20:22;94608.94;;;20.79;100.00
21588;BME280;10956;48.878;13.316;2023-08-12T08:22:47;94602.63;;;20.84;99.34
21588;BME280;10956;48.878;13.316;2023-08-12T08:25:13;94603.72;;;20.91;100.00
21588;BME280;10956;48.878;13.316;2023-08-12T08:27:38;94602.09;;;20.99;100.00
21588;BME280;10956;48.878;13.316;2023-08-12T08:30:06;94597.53;;;21.00;100.00
21588;BME280;10956;48.878;13.316;2023-08-12T08:32:31;94598.63;;;20.99;100.00
21588;BME280;10956;48.878;13.316;2023-08-12T08:34:57;94601.78;;;21.01;100.00
21588;BME280;10956;48.878;13.316;2023-08-12T08:37:22;94598.28;;;21.09;100.00
21588;BME280;10956;48.878;13.316;2023-08-12T08:39:48;94602.66;;;21.22;100.00
21588;BME280;10956;48.878;13.316;2023-08-12T08:42:15;94599.34;;;21.25;100.00
21588;BME280;10956;48.878;13.316;2023-08-12T08:44:42;94600.47;;;21.24;100.00
21588;BME280;10956;48.878;13.316;2023-08-12T08:47:08;94594.44;;;21.27;100.00
21588;BME280;10956;48.878;13.316;2023-08-12T08:49:34;94601.84;;;21.30;100.00
21588;BME280;10956;48.878;13.316;2023-08-12T08:52:01;94606.25;;;21.35;100.00
21588;BME280;10956;48.878;13.316;2023-08-12T08:54:27;94607.94;;;21.39;100.00
21588;BME280;10956;48.878;13.316;2023-08-12T08:56:53;94603.50;;;21.43;100.00
21588;BME280;10956;48.878;13.316;2023-08-12T09:01:48;94606.66;;;21.45;100.00
21588;BME280;10956;48.878;13.316;2023-08-12T09:04:16;94603.97;;;21.45;97.61
21588;BME280;10956;48.878;13.316;2023-08-12T09:06:43;94610.72;;;21.51;97.85
21588;BME280;10956;48.878;13.316;2023-08-12T09:09:12;94601.25;;;21.54;97.49
21588;BME280;10956;48.878;13.316;2023-08-12T09:11:39;94607.03;;;21.65;99.93
21588;BME280;10956;48.878;13.316;2023-08-12T09:14:06;94605.72;;;21.71;100.00
21588;BME280;10956;48.878;13.316;2023-08-12T09:16:32;94601.59;;;21.73;99.20
21588;BME280;10956;48.878;13.316;2023-08-12T09:18:58;94606.44;;;21.80;99.96
21588;BME280;10956;48.878;13.316;2023-08-12T09:21:23;94603.75;;;21.80;98.84
21588;BME280;10956;48.878;13.316;2023-08-12T09:23:49;94605.78;;;21.83;96.81
21588;BME280;10956;48.878;13.316;2023-08-12T09:26:19;94612.09;;;21.87;92.08
21588;BME280;10956;48.878;13.316;2023-08-12T09:28:45;94615.09;;;21.85;90.67
21588;BME280;10956;48.878;13.316;2023-08-12T09:31:25;94612.88;;;21.87;91.84
21588;BME280;10956;48.878;13.316;2023-08-12T09:33:52;94601.81;;;21.89;91.84
21588;BME280;10956;48.878;13.316;2023-08-12T09:36:18;94613.00;;;21.91;91.88
21588;BME280;10956;48.878;13.316;2023-08-12T09:38:45;94609.66;;;21.94;91.01
21588;BME280;10956;48.878;13.316;2023-08-12T09:41:10;94614.34;;;22.06;87.57
21588;BME280;10956;48.878;13.316;2023-08-12T09:43:40;94610.69;;;22.10;88.11
21588;BME280;10956;48.878;13.316;2023-08-12T09:46:10;94613.09;;;22.03;86.90
21588;BME280;10956;48.878;13.316;2023-08-12T09:48:36;94608.19;;;22.05;86.59
21588;BME280;10956;48.878;13.316;2023-08-12T09:51:02;94601.84;;;22.10;86.61
21588;BME280;10956;48.878;13.316;2023-08-12T09:53:27;94602.56;;;22.19;88.68
21588;BME280;10956;48.878;13.316;2023-08-12T09:55:54;94607.53;;;22.29;92.09
21588;BME280;10956;48.878;13.316;2023-08-12T09:58:22;94596.00;;;22.29;92.60
21588;BME280;10956;48.878;13.316;2023-08-12T10:00:49;94602.28;;;22.33;92.76
21588;BME280;10956;48.878;13.316;2023-08-12T10:03:17;94600.38;;;22.33;92.89
21588;BME280;10956;48.878;13.316;2023-08-12T10:05:44;94601.16;;;22.34;89.63
21588;BME280;10956;48.878;13.316;2023-08-12T10:08:11;94600.19;;;22.38;88.46
21588;BME280;10956;48.878;13.316;2023-08-12T10:10:39;94601.66;;;22.48;88.11
21588;BME280;10956;48.878;13.316;2023-08-12T10:13:05;94601.88;;;22.43;86.45
21588;BME280;10956;48.878;13.316;2023-08-12T10:15:33;94587.31;;;22.44;89.75
21588;BME280;10956;48.878;13.316;2023-08-12T10:17:59;94580.88;;;22.57;93.16
21588;BME280;10956;48.878;13.316;2023-08-12T10:20:25;94577.88;;;22.59;92.46
21588;BME280;10956;48.878;13.316;2023-08-12T10:22:53;94576.66;;;22.68;91.06
21588;BME280;10956;48.878;13.316;2023-08-12T10:25:20;94582.47;;;22.70;90.15
21588;BME280;10956;48.878;13.316;2023-08-12T10:27:49;94587.63;;;22.75;90.97
21588;BME280;10956;48.878;13.316;2023-08-12T10:30:14;94571.53;;;22.75;85.65
21588;BME280;10956;48.878;13.316;2023-08-12T10:32:40;94578.28;;;22.81;84.96
21588;BME280;10956;48.878;13.316;2023-08-12T10:35:06;94580.03;;;22.77;85.27
21588;BME280;10956;48.878;13.316;2023-08-12T10:37:33;94572.56;;;22.83;87.12
21588;BME280;10956;48.878;13.316;2023-08-12T10:40:02;94581.44;;;22.96;85.32
21588;BME280;10956;48.878;13.316;2023-08-12T10:42:43;94579.66;;;23.12;87.79
21588;BME280;10956;48.878;13.316;2023-08-12T10:45:13;94584.59;;;23.22;85.09
21588;BME280;10956;48.878;13.316;2023-08-12T10:48:09;94585.28;;;23.31;79.68
21588;BME280;10956;48.878;13.316;2023-08-12T10:50:34;94575.06;;;23.37;83.29
21588;BME280;10956;48.878;13.316;2023-08-12T10:53:27;94580.44;;;23.37;84.30
21588;BME280;10956;48.878;13.316;2023-08-12T10:56:02;94578.09;;;23.35;85.08
21588;BME280;10956;48.878;13.316;2023-08-12T10:58:33;94575.06;;;23.37;84.49
21588;BME280;10956;48.878;13.316;2023-08-12T11:00:59;94568.78;;;23.45;84.65
21588;BME280;10956;48.878;13.316;2023-08-12T11:03:24;94577.88;;;23.52;82.82
21588;BME280;10956;48.878;13.316;2023-08-12T11:05:50;94577.44;;;23.63;80.66
21588;BME280;10956;48.878;13.316;2023-08-12T11:08:24;94567.66;;;23.70;78.84
21588;BME280;10956;48.878;13.316;2023-08-12T11:10:49;94570.91;;;23.76;81.70
21588;BME280;10956;48.878;13.316;2023-08-12T11:13:15;94567.78;;;23.74;81.04
21588;BME280;10956;48.878;13.316;2023-08-12T11:15:42;94568.56;;;23.74;80.54
21588;BME280;10956;48.878;13.316;2023-08-12T11:18:09;94565.28;;;23.81;80.37
21588;BME280;10956;48.878;13.316;2023-08-12T11:20:37;94561.03;;;23.80;79.97
21588;BME280;10956;48.878;13.316;2023-08-12T11:23:03;94561.28;;;23.75;80.38
21588;BME280;10956;48.878;13.316;2023-08-12T11:25:30;94561.72;;;23.77;78.17
21588;BME280;10956;48.878;13.316;2023-08-12T11:27:56;94552.53;;;23.78;76.99
21588;BME280;10956;48.878;13.316;2023-08-12T11:30:23;94554.28;;;23.86;77.24
21588;BME280;10956;48.878;13.316;2023-08-12T11:32:50;94557.44;;;23.88;76.38
21588;BME280;10956;48.878;13.316;2023-08-12T11:35:17;94549.13;;;23.93;76.39
21588;BME280;10956;48.878;13.316;2023-08-12T11:37:54;94547.94;;;24.06;74.35
21588;BME280;10956;48.878;13.316;2023-08-12T11:40:21;94544.75;;;24.29;76.48
21588;BME280;10956;48.878;13.316;2023-08-12T11:42:49;94535.94;;;24.44;77.51
21588;BME280;10956;48.878;13.316;2023-08-12T11:45:19;94542.63;;;24.50;77.16
21588;BME280;10956;48.878;13.316;2023-08-12T11:47:45;94542.38;;;24.55;75.84
21588;BME280;10956;48.878;13.316;2023-08-12T11:50:22;94540.13;;;24.57;75.35
21588;BME280;10956;48.878;13.316;2023-08-12T11:52:48;94535.75;;;24.53;75.70
21588;BME280;10956;48.878;13.316;2023-08-12T11:55:14;94534.09;;;24.48;75.67
21588;BME280;10956;48.878;13.316;2023-08-12T11:57:40;94526.91;;;24.52;74.55
21588;BME280;10956;48.878;13.316;2023-08-12T12:00:08;94527.19;;;24.63;75.27
21588;BME280;10956;48.878;13.316;2023-08-12T12:02:49;94526.66;;;24.73;74.56
21588;BME280;10956;48.878;13.316;2023-08-12T12:05:16;94529.97;;;24.82;74.12
21588;BME280;10956;48.878;13.316;2023-08-12T12:07:42;94527.38;;;24.86;74.29
21588;BME280;10956;48.878;13.316;2023-08-12T12:10:13;94534.06;;;24.92;73.36
21588;BME280;10956;48.878;13.316;2023-08-12T12:12:38;94526.63;;;25.01;72.73
21588;BME280;10956;48.878;13.316;2023-08-12T12:15:04;94525.47;;;25.02;73.49
21588;BME280;10956;48.878;13.316;2023-08-12T12:17:30;94534.34;;;25.02;72.54
21588;BME280;10956;48.878;13.316;2023-08-12T12:20:00;94523.75;;;25.09;70.26
21588;BME280;10956;48.878;13.316;2023-08-12T12:22:28;94526.69;;;25.20;69.29
21588;BME280;10956;48.878;13.316;2023-08-12T12:24:54;94523.63;;;25.37;67.48
21588;BME280;10956;48.878;13.316;2023-08-12T12:27:19;94512.28;;;25.48;70.90
21588;BME280;10956;48.878;13.316;2023-08-12T12:29:44;94517.84;;;25.55;72.56
21588;BME280;10956;48.878;13.316;2023-08-12T12:32:10;94520.09;;;25.53;71.38
21588;BME280;10956;48.878;13.316;2023-08-12T12:34:36;94520.03;;;25.49;70.81
21588;BME280;10956;48.878;13.316;2023-08-12T12:37:01;94513.97;;;25.36;70.35
21588;BME280;10956;48.878;13.316;2023-08-12T12:39:27;94515.78;;;25.32;71.98
21588;BME280;10956;48.878;13.316;2023-08-12T12:41:52;94520.41;;;25.32;72.58